Ashland, New Jersey
Current Conditions -  °F | °C
As of 12:54 AM on Friday 28 Nov 2014 (Local Time) from KVAY Reporting Station
Clear Clear  
Wind Chill: 25°   Ceiling: Unl
Heat Index: 31°   Visibility: 10mi
Dew Point: 25°   Wind: 6mph
Humidity: 79%   Direction: 290°WNW
Pressure: 30.1"   Gusts: NA
Location:  39.9056°N, 74.9993°W
Report Text: KVAY 280554Z AUTO 29005KT 10SM CLR M01/M04 A3010 RMK AO2 SLP194 T10061039 10017 21006 50000
Loading
Personal Weather Stations






























Interactive Weather Map New forecast layout! Learn more

10-Day Weather Forecast

Advertisements
Track Severe Weather on mobile